sensor_id;sensor_type;location;lat;lon;timestamp;temperature;humidity
66337;SHT30;53139;45.576;5.304;2022-08-26T08:54:49;26.06;64.93
66337;SHT30;53139;45.576;5.304;2022-08-26T08:58:04;26.12;65.21
66337;SHT30;53139;45.576;5.304;2022-08-26T09:01:11;26.54;64.26
66337;SHT30;53139;45.576;5.304;2022-08-26T09:10:40;27.77;58.49
66337;SHT30;53139;45.576;5.304;2022-08-26T09:13:50;28.78;56.10
66337;SHT30;53139;45.576;5.304;2022-08-26T09:17:03;28.67;57.12
66337;SHT30;53139;45.576;5.304;2022-08-26T09:23:47;29.91;53.47
66337;SHT30;53139;45.576;5.304;2022-08-26T09:26:50;29.54;53.86
66337;SHT30;53139;45.576;5.304;2022-08-26T09:29:51;28.57;55.74
66337;SHT30;53139;45.576;5.304;2022-08-26T09:33:01;28.57;56.76
66337;SHT30;53139;45.576;5.304;2022-08-26T09:36:34;27.74;58.84
66337;SHT30;53139;45.576;5.304;2022-08-26T09:39:37;27.10;60.03
66337;SHT30;53139;45.576;5.304;2022-08-26T09:42:37;27.96;57.35
66337;SHT30;53139;45.576;5.304;2022-08-26T09:45:39;28.02;58.18
66337;SHT30;53139;45.576;5.304;2022-08-26T09:48:40;27.31;58.25
66337;SHT30;53139;45.576;5.304;2022-08-26T09:51:42;27.86;58.00
66337;SHT30;53139;45.576;5.304;2022-08-26T09:54:44;28.57;56.39
66337;SHT30;53139;45.576;5.304;2022-08-26T10:00:56;28.87;55.98
66337;SHT30;53139;45.576;5.304;2022-08-26T10:07:11;28.67;56.06
66337;SHT30;53139;45.576;5.304;2022-08-26T10:10:35;28.23;55.73
66337;SHT30;53139;45.576;5.304;2022-08-26T10:13:43;29.18;54.87
66337;SHT30;53139;45.576;5.304;2022-08-26T10:16:58;30.18;52.38
66337;SHT30;53139;45.576;5.304;2022-08-26T10:20:06;27.95;55.94
66337;SHT30;53139;45.576;5.304;2022-08-26T10:23:20;28.20;55.15
66337;SHT30;53139;45.576;5.304;2022-08-26T10:26:41;28.54;54.47
66337;SHT30;53139;45.576;5.304;2022-08-26T10:29:49;30.37;52.17
66337;SHT30;53139;45.576;5.304;2022-08-26T10:32:55;28.03;55.22
66337;SHT30;53139;45.576;5.304;2022-08-26T10:36:01;28.47;53.95
66337;SHT30;53139;45.576;5.304;2022-08-26T10:39:06;28.85;53.39
66337;SHT30;53139;45.576;5.304;2022-08-26T10:42:15;28.29;54.58
66337;SHT30;53139;45.576;5.304;2022-08-26T10:45:19;28.41;53.41
66337;SHT30;53139;45.576;5.304;2022-08-26T10:51:41;27.24;56.35
66337;SHT30;53139;45.576;5.304;2022-08-26T10:54:56;27.46;57.95
66337;SHT30;53139;45.576;5.304;2022-08-26T10:58:16;27.48;55.75
66337;SHT30;53139;45.576;5.304;2022-08-26T11:05:31;27.88;56.20
66337;SHT30;53139;45.576;5.304;2022-08-26T11:11:49;28.51;54.24
66337;SHT30;53139;45.576;5.304;2022-08-26T11:14:49;28.21;54.47
66337;SHT30;53139;45.576;5.304;2022-08-26T11:20:50;27.98;55.77
66337;SHT30;53139;45.576;5.304;2022-08-26T11:23:50;28.61;52.58
66337;SHT30;53139;45.576;5.304;2022-08-26T11:26:52;28.96;53.10
66337;SHT30;53139;45.576;5.304;2022-08-26T11:33:04;28.10;55.85
66337;SHT30;53139;45.576;5.304;2022-08-26T11:36:06;26.83;56.98
66337;SHT30;53139;45.576;5.304;2022-08-26T11:39:20;26.62;58.58
66337;SHT30;53139;45.576;5.304;2022-08-26T11:42:35;26.74;58.35
66337;SHT30;53139;45.576;5.304;2022-08-26T11:45:46;26.67;57.81
66337;SHT30;53139;45.576;5.304;2022-08-26T11:48:47;26.55;57.93
66337;SHT30;53139;45.576;5.304;2022-08-26T11:51:47;27.84;55.72
66337;SHT30;53139;45.576;5.304;2022-08-26T11:55:07;26.72;56.71
66337;SHT30;53139;45.576;5.304;2022-08-26T11:58:10;27.09;56.18
66337;SHT30;53139;45.576;5.304;2022-08-26T12:01:22;27.68;55.14
66337;SHT30;53139;45.576;5.304;2022-08-26T12:04:30;30.61;49.02
66337;SHT30;53139;45.576;5.304;2022-08-26T12:07:31;31.33;45.96
66337;SHT30;53139;45.576;5.304;2022-08-26T12:10:32;32.79;42.85
66337;SHT30;53139;45.576;5.304;2022-08-26T12:13:34;36.61;37.99
66337;SHT30;53139;45.576;5.304;2022-08-26T12:16:38;33.59;42.83
66337;SHT30;53139;45.576;5.304;2022-08-26T12:19:38;36.30;38.36
66337;SHT30;53139;45.576;5.304;2022-08-26T12:22:41;36.45;36.82
66337;SHT30;53139;45.576;5.304;2022-08-26T12:25:42;34.00;40.43
66337;SHT30;53139;45.576;5.304;2022-08-26T12:28:46;34.75;41.28
66337;SHT30;53139;45.576;5.304;2022-08-26T12:31:47;36.87;36.77
66337;SHT30;53139;45.576;5.304;2022-08-26T12:34:47;38.70;34.50
66337;SHT30;53139;45.576;5.304;2022-08-26T12:37:49;36.20;37.64
66337;SHT30;53139;45.576;5.304;2022-08-26T12:40:51;37.54;34.06
66337;SHT30;53139;45.576;5.304;2022-08-26T12:43:51;39.12;34.15
66337;SHT30;53139;45.576;5.304;2022-08-26T12:46:52;36.50;37.82
66337;SHT30;53139;45.576;5.304;2022-08-26T12:50:06;38.39;33.79
66337;SHT30;53139;45.576;5.304;2022-08-26T12:56:27;37.06;35.48
66337;SHT30;53139;45.576;5.304;2022-08-26T12:59:29;32.98;42.70
66337;SHT30;53139;45.576;5.304;2022-08-26T13:02:36;32.09;44.49
66337;SHT30;53139;45.576;5.304;2022-08-26T13:05:37;35.57;38.99
66337;SHT30;53139;45.576;5.304;2022-08-26T13:08:40;37.37;36.06
66337;SHT30;53139;45.576;5.304;2022-08-26T13:14:41;32.38;43.34
66337;SHT30;53139;45.576;5.304;2022-08-26T13:17:42;40.34;31.40
66337;SHT30;53139;45.576;5.304;2022-08-26T13:20:42;35.21;37.11
66337;SHT30;53139;45.576;5.304;2022-08-26T13:23:44;42.09;30.08
66337;SHT30;53139;45.576;5.304;2022-08-26T13:26:46;41.69;29.98
66337;SHT30;53139;45.576;5.304;2022-08-26T13:29:49;39.21;30.82
66337;SHT30;53139;45.576;5.304;2022-08-26T13:32:55;39.66;32.78
66337;SHT30;53139;45.576;5.304;2022-08-26T13:35:58;40.94;30.85
66337;SHT30;53139;45.576;5.304;2022-08-26T13:38:58;41.99;29.53
